Time;durP1;ratioP1;P1;durP2;ratioP2;P2;SDS_P1;SDS_P2;PMS_P1;PMS_P2;Temp;Humidity;BMP_temperature;BMP_pressure;BME280_temperature;BME280_humidity;BME280_pressure;Samples;Min_cycle;Max_cycle;Signal;HPM_P1;HPM_P2
2023/10/19 00:00:36;;;;;;;;;;;;;;;2.92;100.00;99362.80;106204;1254;74605;-73
2023/10/19 00:03:02;;;;;;;;;;;;;;;2.89;100.00;99369.21;106240;1252;69641;-74
2023/10/19 00:05:30;;;;;;;;;;;;;;;2.85;100.00;99368.91;106230;1250;72750;-73
2023/10/19 00:08:05;;;;;;;;;;;;;;;2.83;100.00;99373.08;107508;1250;61242;-73
2023/10/19 00:10:37;;;;;;;;;;;;;;;2.81;100.00;99370.30;106225;1251;61155;-73
2023/10/19 00:13:05;;;;;;;;;;;;;;;2.80;100.00;99373.25;106986;1250;74766;-72
2023/10/19 00:15:34;;;;;;;;;;;;;;;2.79;100.00;99371.70;107009;1256;71078;-74
2023/10/19 00:18:23;;;;;;;;;;;;;;;2.78;100.00;99374.82;106544;1254;71418;-73
2023/10/19 00:20:52;;;;;;;;;;;;;;;2.75;100.00;99373.63;106221;1254;61263;-72
2023/10/19 00:23:40;;;;;;;;;;;;;;;2.73;100.00;99377.45;107468;1252;61286;-73
2023/10/19 00:26:15;;;;;;;;;;;;;;;2.71;100.00;99378.67;106255;1250;74581;-73
2023/10/19 00:28:46;;;;;;;;;;;;;;;2.69;100.00;99381.45;106667;1250;69115;-73
2023/10/19 00:31:13;;;;;;;;;;;;;;;2.67;100.00;99382.85;107601;1254;72493;-72
2023/10/19 00:33:40;;;;;;;;;;;;;;;2.67;100.00;99380.26;106743;1251;61292;-74
2023/10/19 00:36:13;;;;;;;;;;;;;;;2.67;100.00;99379.90;106636;1250;61343;-72
2023/10/19 00:38:41;;;;;;;;;;;;;;;2.68;100.00;99379.04;106258;1250;73255;-73
2023/10/19 00:41:11;;;;;;;;;;;;;;;2.67;100.00;99380.42;106620;1250;70998;-74
2023/10/19 00:43:43;;;;;;;;;;;;;;;2.66;100.00;99376.45;105939;1253;1003843;-74
2023/10/19 00:46:32;;;;;;;;;;;;;;;2.65;100.00;99375.59;106365;1251;61652;-74
2023/10/19 00:48:58;;;;;;;;;;;;;;;2.65;100.00;99375.08;107467;1250;61157;-73
2023/10/19 00:54:51;;;;;;;;;;;;;;;2.60;100.00;99366.42;106313;1250;70956;-73
2023/10/19 00:56:51;;;;;;;;;;;;;;;2.57;100.00;99372.16;105991;1250;72562;-73
2023/10/19 00:59:29;;;;;;;;;;;;;;;2.53;100.00;99370.45;106421;1250;61277;-73
2023/10/19 01:04:42;;;;;;;;;;;;;;;2.46;100.00;99374.81;107386;1250;74928;-73
2023/10/19 01:07:15;;;;;;;;;;;;;;;2.42;100.00;99374.64;106567;1254;69886;-73
2023/10/19 01:09:44;;;;;;;;;;;;;;;2.38;100.00;99378.48;106387;1251;72571;-73
2023/10/19 01:12:27;;;;;;;;;;;;;;;2.35;100.00;99381.23;106200;1250;61350;-73
2023/10/19 01:15:51;;;;;;;;;;;;;;;2.31;100.00;99382.65;107993;1250;60056;-73
2023/10/19 01:17:58;;;;;;;;;;;;;;;2.25;100.00;99385.44;106146;1253;74471;-73
2023/10/19 01:26:29;;;;;;;;;;;;;;;2.14;100.00;99379.06;106029;1250;61250;-72
2023/10/19 01:28:43;;;;;;;;;;;;;;;2.11;100.00;99375.78;106183;1256;61260;-72
2023/10/19 01:31:17;;;;;;;;;;;;;;;2.11;100.00;99377.52;108254;1250;74801;-73
2023/10/19 01:33:45;;;;;;;;;;;;;;;2.10;100.00;99382.03;107037;1254;70226;-73
2023/10/19 01:36:12;;;;;;;;;;;;;;;2.09;100.00;99384.96;107012;1254;71584;-74
2023/10/19 01:38:38;;;;;;;;;;;;;;;2.06;100.00;99383.92;107032;1250;61289;-72
2023/10/19 01:41:18;;;;;;;;;;;;;;;2.05;100.00;99384.79;106597;1256;60318;-72
2023/10/19 01:43:46;;;;;;;;;;;;;;;2.02;100.00;99385.67;106228;1251;73687;-73
2023/10/19 01:46:21;;;;;;;;;;;;;;;2.00;100.00;99379.45;107066;1254;69286;-73
2023/10/19 01:48:49;;;;;;;;;;;;;;;1.99;100.00;99382.04;106196;1250;72516;-72
2023/10/19 01:51:16;;;;;;;;;;;;;;;1.97;100.00;99379.28;106230;1250;61270;-74
2023/10/19 01:53:46;;;;;;;;;;;;;;;1.95;100.00;99381.71;105726;1256;61267;-73
2023/10/19 01:56:14;;;;;;;;;;;;;;;1.93;100.00;99383.62;106243;1250;74517;-73
2023/10/19 01:58:41;;;;;;;;;;;;;;;1.91;100.00;99382.06;106526;1250;71239;-72
2023/10/19 02:01:15;;;;;;;;;;;;;;;1.89;100.00;99387.42;106548;1257;72261;-73
2023/10/19 02:03:42;;;;;;;;;;;;;;;1.87;100.00;99388.45;107470;1250;61336;-74
2023/10/19 02:06:35;;;;;;;;;;;;;;;1.85;100.00;99387.77;106240;1250;61363;-74
2023/10/19 02:09:09;;;;;;;;;;;;;;;1.85;100.00;99388.30;106660;1254;73118;-74
2023/10/19 02:11:37;;;;;;;;;;;;;;;1.85;100.00;99387.95;106559;1251;71142;-75
2023/10/19 02:14:13;;;;;;;;;;;;;;;1.86;100.00;99385.17;108289;1253;71124;-73
2023/10/19 02:16:42;;;;;;;;;;;;;;;1.86;100.00;99385.86;106322;1250;61223;-73
2023/10/19 02:19:09;;;;;;;;;;;;;;;1.89;100.00;99386.56;106210;1254;61177;-73
2023/10/19 02:21:40;;;;;;;;;;;;;;;1.90;100.00;99386.55;106576;1251;74111;-74
2023/10/19 02:24:14;;;;;;;;;;;;;;;1.91;100.00;99379.30;106441;1251;71315;-72
2023/10/19 02:26:44;;;;;;;;;;;;;;;1.92;100.00;99378.61;106071;1250;72891;-73
2023/10/19 02:29:12;;;;;;;;;;;;;;;1.91;100.00;99380.50;106171;1250;61369;-73
2023/10/19 02:31:39;;;;;;;;;;;;;;;1.90;100.00;99378.41;107057;1254;61334;-72
2023/10/19 02:34:07;;;;;;;;;;;;;;;1.90;100.00;99379.46;106621;1250;73346;-73
2023/10/19 02:36:34;;;;;;;;;;;;;;;1.90;100.00;99375.48;106673;1250;71003;-74
2023/10/19 02:39:07;;;;;;;;;;;;;;;1.90;100.00;99372.37;106612;1254;72710;-73
2023/10/19 02:41:53;;;;;;;;;;;;;;;1.90;100.00;99374.62;106207;1255;61367;-73
2023/10/19 02:44:22;;;;;;;;;;;;;;;1.89;100.00;99381.20;106624;1254;61158;-73
2023/10/19 02:46:50;;;;;;;;;;;;;;;1.88;100.00;99374.79;106662;1255;74628;-73
2023/10/19 02:49:20;;;;;;;;;;;;;;;1.87;100.00;99375.14;106180;1255;69761;-72
2023/10/19 02:51:47;;;;;;;;;;;;;;;1.86;100.00;99379.11;106088;1254;73986;-73
2023/10/19 02:56:52;;;;;;;;;;;;;;;1.83;100.00;99378.27;106549;1256;61234;-72
2023/10/19 02:59:23;;;;;;;;;;;;;;;1.81;100.00;99376.36;106493;1251;73438;-73
2023/10/19 03:01:51;;;;;;;;;;;;;;;1.80;100.00;99372.39;106964;1255;69714;-71
2023/10/19 03:04:18;;;;;;;;;;;;;;;1.80;100.00;99373.24;106953;1251;71834;-73
2023/10/19 03:06:45;;;;;;;;;;;;;;;1.78;100.00;99378.27;106210;1254;61264;-72
2023/10/19 03:09:15;;;;;;;;;;;;;;;1.75;100.00;99380.17;106225;1253;61276;-73
2023/10/19 03:11:43;;;;;;;;;;;;;;;1.71;100.00;99382.42;106246;1256;74821;-72
2023/10/19 03:14:11;;;;;;;;;;;;;;;1.71;100.00;99386.41;106772;1250;71126;-73
2023/10/19 03:16:41;;;;;;;;;;;;;;;1.68;100.00;99385.02;106354;1256;72479;-72
2023/10/19 03:19:09;;;;;;;;;;;;;;;1.67;100.00;99382.95;106252;1256;61336;-74
2023/10/19 03:21:48;;;;;;;;;;;;;;;1.65;100.00;99379.16;106147;1255;61257;-73
2023/10/19 03:24:23;;;;;;;;;;;;;;;1.65;100.00;99382.61;106385;1256;74434;-72
2023/10/19 03:26:50;;;;;;;;;;;;;;;1.64;100.00;99377.94;107336;1255;71449;-74
2023/10/19 03:29:25;;;;;;;;;;;;;;;1.63;100.00;99377.25;107418;1251;72337;-73
2023/10/19 03:31:52;;;;;;;;;;;;;;;1.62;100.00;99376.21;106142;1256;61392;-73
2023/10/19 03:34:21;;;;;;;;;;;;;;;1.61;100.00;99376.55;106174;1252;61244;-74
2023/10/19 03:36:48;;;;;;;;;;;;;;;1.60;100.00;99375.88;106198;1253;74458;-73
2023/10/19 03:39:14;;;;;;;;;;;;;;;1.59;100.00;99378.98;107230;1256;70917;-73
2023/10/19 03:41:44;;;;;;;;;;;;;;;1.55;100.00;99378.12;106193;1256;72363;-73
2023/10/19 03:47:11;;;;;;;;;;;;;;;1.53;100.00;99381.23;105926;1257;61302;-73
2023/10/19 03:49:41;;;;;;;;;;;;;;;1.50;100.00;99381.74;106988;1252;73133;-73
2023/10/19 03:54:40;;;;;;;;;;;;;;;1.47;100.00;99376.38;106622;1251;61379;-71
2023/10/19 03:57:11;;;;;;;;;;;;;;;1.44;100.00;99375.52;107521;1255;61371;-72
2023/10/19 03:59:41;;;;;;;;;;;;;;;1.43;100.00;99376.56;106225;1256;61337;-73
2023/10/19 04:02:16;;;;;;;;;;;;;;;1.41;100.00;99377.95;108016;1252;74524;-72
2023/10/19 04:04:43;;;;;;;;;;;;;;;1.40;100.00;99376.39;107863;1254;71160;-73
2023/10/19 04:07:43;;;;;;;;;;;;;;;1.40;100.00;99377.95;106086;1257;1002052;-72
2023/10/19 04:12:35;;;;;;;;;;;;;;;1.39;100.00;99379.16;106618;1256;61273;-72
2023/10/19 04:17:42;;;;;;;;;;;;;;;1.38;100.00;99380.19;106003;1257;71016;-72
2023/10/19 04:22:45;;;;;;;;;;;;;;;1.34;100.00;99382.08;106604;1252;61267;-71
2023/10/19 04:25:12;;;;;;;;;;;;;;;1.33;100.00;99381.93;106656;1251;61346;-73
2023/10/19 04:27:41;;;;;;;;;;;;;;;1.32;100.00;99383.13;107345;1251;74514;-73
2023/10/19 04:30:22;;;;;;;;;;;;;;;1.30;100.00;99382.61;107511;1251;71097;-73
2023/10/19 04:32:49;;;;;;;;;;;;;;;1.27;100.00;99382.27;106371;1251;70503;-71
2023/10/19 04:35:22;;;;;;;;;;;;;;;1.26;100.00;99384.50;106241;1254;61451;-72
2023/10/19 04:37:50;;;;;;;;;;;;;;;1.27;100.00;99383.81;106657;1253;61247;-73
2023/10/19 04:40:17;;;;;;;;;;;;;;;1.25;100.00;99384.51;106618;1254;74464;-73
2023/10/19 04:42:44;;;;;;;;;;;;;;;1.25;100.00;99387.96;106229;1256;71167;-74
2023/10/19 04:45:11;;;;;;;;;;;;;;;1.22;100.00;99387.44;106294;1251;1003723;-73
2023/10/19 04:47:38;;;;;;;;;;;;;;;1.21;100.00;99384.67;106240;1263;61347;-72
2023/10/19 04:50:05;;;;;;;;;;;;;;;1.21;100.00;99388.45;107040;1254;61340;-74
2023/10/19 04:52:32;;;;;;;;;;;;;;;1.20;100.00;99393.99;106642;1254;73097;-73
2023/10/19 04:54:59;;;;;;;;;;;;;;;1.18;100.00;99388.46;106889;1251;71095;-73
2023/10/19 04:57:25;;;;;;;;;;;;;;;1.17;100.00;99391.75;107125;1251;72512;-73
2023/10/19 04:59:52;;;;;;;;;;;;;;;1.17;100.00;99391.23;106689;1250;61257;-74
2023/10/19 05:02:19;;;;;;;;;;;;;;;1.15;100.00;99397.79;106320;1257;61369;-74
2023/10/19 05:04:46;;;;;;;;;;;;;;;1.15;100.00;99398.30;106842;1254;74519;-74
2023/10/19 05:07:16;;;;;;;;;;;;;;;1.16;100.00;99399.00;106259;1254;70921;-73
2023/10/19 05:09:43;;;;;;;;;;;;;;;1.19;100.00;99399.00;106189;1263;72462;-73
2023/10/19 05:12:11;;;;;;;;;;;;;;;1.22;100.00;99396.77;107393;1251;61132;-73
2023/10/19 05:14:43;;;;;;;;;;;;;;;1.25;100.00;99396.41;107174;1251;61242;-72
2023/10/19 05:17:10;;;;;;;;;;;;;;;1.30;100.00;99400.41;106209;1251;73231;-74
2023/10/19 05:19:37;;;;;;;;;;;;;;;1.38;100.00;99402.31;106203;1251;71533;-72
2023/10/19 05:22:05;;;;;;;;;;;;;;;1.47;100.00;99404.73;106154;1255;72922;-74
2023/10/19 05:24:32;;;;;;;;;;;;;;;1.58;100.00;99403.01;106759;1251;1002559;-73
2023/10/19 05:26:59;;;;;;;;;;;;;;;1.69;100.00;99404.56;106169;1254;61248;-73
2023/10/19 05:29:25;;;;;;;;;;;;;;;1.80;100.00;99405.41;106681;1254;73507;-73
2023/10/19 05:31:57;;;;;;;;;;;;;;;1.93;100.00;99408.70;106214;1251;70098;-74
2023/10/19 05:34:26;;;;;;;;;;;;;;;2.05;100.00;99409.36;105476;1251;1003166;-73
2023/10/19 05:36:54;;;;;;;;;;;;;;;2.15;100.00;99411.77;106166;1254;61247;-72
2023/10/19 05:39:20;;;;;;;;;;;;;;;2.24;100.00;99413.14;107584;1254;61272;-74
2023/10/19 05:41:47;;;;;;;;;;;;;;;2.33;100.00;99414.66;106230;1254;74650;-73
2023/10/19 05:44:14;;;;;;;;;;;;;;;2.41;100.00;99416.54;106170;1254;71356;-73
2023/10/19 05:46:41;;;;;;;;;;;;;;;2.47;100.00;99417.56;106428;1254;72382;-73
2023/10/19 05:49:08;;;;;;;;;;;;;;;2.54;100.00;99422.91;107041;1251;61111;-74
2023/10/19 05:51:35;;;;;;;;;;;;;;;2.62;100.00;99420.10;106157;1255;61231;-73
2023/10/19 05:54:01;;;;;;;;;;;;;;;2.73;100.00;99423.02;106144;1254;74932;-73
2023/10/19 05:56:30;;;;;;;;;;;;;;;2.82;100.00;99420.54;106191;1263;71556;-74
2023/10/19 05:58:57;;;;;;;;;;;;;;;2.89;100.00;99418.60;106337;1251;73026;-73
2023/10/19 06:01:24;;;;;;;;;;;;;;;2.99;100.00;99422.53;106314;1255;61334;-73
2023/10/19 06:03:51;;;;;;;;;;;;;;;3.08;100.00;99420.59;106165;1255;61359;-73
2023/10/19 06:06:19;;;;;;;;;;;;;;;3.15;100.00;99420.37;106146;1254;73163;-74
2023/10/19 06:08:46;;;;;;;;;;;;;;;3.21;100.00;99421.02;107034;1251;71134;-73
2023/10/19 06:11:13;;;;;;;;;;;;;;;3.28;100.00;99415.27;107370;1250;71061;-72
2023/10/19 06:13:39;;;;;;;;;;;;;;;3.36;100.00;99420.05;106328;1257;61862;-74
2023/10/19 06:16:06;;;;;;;;;;;;;;;3.40;100.00;99422.98;106265;1251;61346;-74
2023/10/19 06:18:33;;;;;;;;;;;;;;;3.44;100.00;99423.29;106195;1254;75379;-73
2023/10/19 06:20:59;;;;;;;;;;;;;;;3.49;100.00;99423.60;107392;1251;68959;-74
2023/10/19 06:23:26;;;;;;;;;;;;;;;3.54;100.00;99422.69;106186;1251;71972;-74
2023/10/19 06:25:53;;;;;;;;;;;;;;;3.59;100.00;99422.31;106154;1251;62689;-73
2023/10/19 06:28:20;;;;;;;;;;;;;;;3.63;100.00;99421.24;107339;1251;61271;-74
2023/10/19 06:30:48;;;;;;;;;;;;;;;3.68;100.00;99416.52;106260;1254;74643;-75
2023/10/19 06:33:14;;;;;;;;;;;;;;;3.73;100.00;99414.39;106236;1254;71410;-74
2023/10/19 06:35:41;;;;;;;;;;;;;;;3.79;100.00;99412.96;106166;1254;72948;-74
2023/10/19 06:38:09;;;;;;;;;;;;;;;3.85;100.00;99412.73;106212;1254;61196;-73
2023/10/19 06:40:38;;;;;;;;;;;;;;;3.92;100.00;99413.71;107304;1254;61437;-73
2023/10/19 06:43:08;;;;;;;;;;;;;;;3.99;100.00;99412.25;106231;1251;74536;-73
2023/10/19 06:45:34;;;;;;;;;;;;;;;4.08;100.00;99408.01;106164;1254;71572;-74
2023/10/19 06:48:01;;;;;;;;;;;;;;;4.16;100.00;99404.98;106171;1252;61337;-74
2023/10/19 06:50:28;;;;;;;;;;;;;;;4.21;100.00;99401.80;107377;1250;61275;-73
2023/10/19 06:52:54;;;;;;;;;;;;;;;4.27;100.00;99395.48;106165;1254;61798;-73
2023/10/19 06:55:22;;;;;;;;;;;;;;;4.35;100.00;99393.31;107007;1251;75137;-74
2023/10/19 06:57:49;;;;;;;;;;;;;;;4.44;100.00;99387.99;106173;1251;71427;-74
2023/10/19 07:00:20;;;;;;;;;;;;;;;4.57;100.00;99388.02;106386;1254;72677;-74
2023/10/19 07:02:47;;;;;;;;;;;;;;;4.69;100.00;99386.65;106166;1254;61346;-73
2023/10/19 07:05:17;;;;;;;;;;;;;;;4.81;100.00;99385.78;107096;1251;62254;-73
2023/10/19 07:07:45;;;;;;;;;;;;;;;4.95;100.00;99381.43;106119;1251;74489;-74
2023/10/19 07:10:12;;;;;;;;;;;;;;;5.09;100.00;99374.29;106163;1251;70955;-74
2023/10/19 07:12:39;;;;;;;;;;;;;;;5.21;100.00;99376.20;107255;1251;72991;-73
2023/10/19 07:15:13;;;;;;;;;;;;;;;5.33;100.00;99370.80;106781;1251;61271;-75
2023/10/19 07:17:43;;;;;;;;;;;;;;;5.44;100.00;99363.30;106277;1251;61296;-74
2023/10/19 07:20:25;;;;;;;;;;;;;;;5.58;100.00;99359.26;106153;1251;74440;-73
2023/10/19 07:22:52;;;;;;;;;;;;;;;5.77;100.00;99354.23;107041;1254;69968;-75
2023/10/19 07:25:21;;;;;;;;;;;;;;;5.95;100.00;99351.14;106535;1254;72645;-73
2023/10/19 07:27:52;;;;;;;;;;;;;;;6.15;100.00;99347.81;107054;1251;61270;-75
2023/10/19 07:30:21;;;;;;;;;;;;;;;6.39;100.00;99347.52;106314;1256;61346;-73
2023/10/19 07:32:51;;;;;;;;;;;;;;;6.63;100.00;99348.06;106615;1253;75200;-73
2023/10/19 07:35:18;;;;;;;;;;;;;;;6.86;100.00;99339.37;106153;1254;70275;-73
2023/10/19 07:37:45;;;;;;;;;;;;;;;7.09;100.00;99340.08;106138;1254;71202;-73
2023/10/19 07:40:13;;;;;;;;;;;;;;;7.26;100.00;99325.39;106273;1251;61183;-73
2023/10/19 07:42:42;;;;;;;;;;;;;;;7.39;100.00;99329.42;106826;1251;61243;-72
2023/10/19 07:45:11;;;;;;;;;;;;;;;7.52;100.00;99323.36;106804;1251;74417;-73
2023/10/19 07:47:43;;;;;;;;;;;;;;;7.66;100.00;99323.68;106525;1251;70253;-74
2023/10/19 07:50:16;;;;;;;;;;;;;;;7.86;100.00;99321.41;106196;1255;72444;-73
2023/10/19 07:52:48;;;;;;;;;;;;;;;8.02;100.00;99314.36;106187;1251;61310;-73
2023/10/19 07:55:15;;;;;;;;;;;;;;;8.10;100.00;99304.16;107816;1251;61176;-75
2023/10/19 07:57:42;;;;;;;;;;;;;;;8.16;100.00;99300.69;106610;1254;72532;-73
2023/10/19 08:00:09;;;;;;;;;;;;;;;8.19;100.00;99301.30;106641;1254;70987;-73
2023/10/19 08:02:37;;;;;;;;;;;;;;;8.20;100.00;99303.55;106619;1251;72736;-73
2023/10/19 08:05:06;;;;;;;;;;;;;;;8.23;100.00;99303.12;106561;1250;61267;-75
2023/10/19 08:07:36;;;;;;;;;;;;;;;8.27;100.00;99302.13;107425;1251;61369;-73
2023/10/19 08:10:05;;;;;;;;;;;;;;;8.29;100.00;99299.09;106478;1254;74480;-74
2023/10/19 08:12:33;;;;;;;;;;;;;;;8.31;100.00;99300.95;106455;1251;71358;-72
2023/10/19 08:14:59;;;;;;;;;;;;;;;8.31;100.00;99295.73;107835;1251;73093;-74
2023/10/19 08:17:26;;;;;;;;;;;;;;;8.29;100.00;99295.92;106616;1251;61186;-72
2023/10/19 08:19:53;;;;;;;;;;;;;;;8.29;100.00;99295.96;107509;1250;61171;-74
2023/10/19 08:22:21;;;;;;;;;;;;;;;8.33;100.00;99299.34;106536;1251;73171;-74
2023/10/19 08:24:49;;;;;;;;;;;;;;;8.38;100.00;99291.84;106560;1251;71138;-74
2023/10/19 08:27:17;;;;;;;;;;;;;;;8.42;100.00;99289.12;106233;1251;71158;-75
2023/10/19 08:29:44;;;;;;;;;;;;;;;8.44;100.00;99289.60;106196;1251;61255;-74
2023/10/19 08:32:11;;;;;;;;;;;;;;;8.48;100.00;99289.84;106962;1251;61106;-74
2023/10/19 08:34:39;;;;;;;;;;;;;;;8.54;100.00;99285.64;106126;1251;73695;-75
2023/10/19 08:37:06;;;;;;;;;;;;;;;8.63;100.00;99284.86;106550;1251;71630;-74
2023/10/19 08:39:36;;;;;;;;;;;;;;;8.72;100.00;99284.23;106175;1254;71572;-72
2023/10/19 08:42:04;;;;;;;;;;;;;;;8.82;100.00;99282.50;106590;1250;61160;-74
2023/10/19 08:44:31;;;;;;;;;;;;;;;8.94;100.00;99286.15;106133;1250;1003518;-73
2023/10/19 08:46:59;;;;;;;;;;;;;;;9.05;100.00;99282.30;106515;1251;74149;-73
2023/10/19 08:49:28;;;;;;;;;;;;;;;9.19;100.00;99286.91;106161;1254;72963;-73
2023/10/19 08:51:55;;;;;;;;;;;;;;;9.32;100.00;99281.96;107427;1250;71724;-74
2023/10/19 08:54:22;;;;;;;;;;;;;;;9.39;100.00;99284.90;106441;1250;61311;-71
2023/10/19 08:56:49;;;;;;;;;;;;;;;9.43;100.00;99287.21;106223;1251;61141;-74
2023/10/19 08:59:16;;;;;;;;;;;;;;;9.46;100.00;99285.00;107417;1250;75222;-73
2023/10/19 09:01:43;;;;;;;;;;;;;;;9.47;100.00;99285.48;106982;1254;70792;-73
2023/10/19 09:04:10;;;;;;;;;;;;;;;9.54;100.00;99279.30;106901;1251;71995;-74
2023/10/19 09:06:44;;;;;;;;;;;;;;;9.64;100.00;99282.64;106172;1251;61234;-74
2023/10/19 09:09:16;;;;;;;;;;;;;;;9.75;100.00;99277.01;106170;1254;61188;-74
2023/10/19 09:11:43;;;;;;;;;;;;;;;9.79;100.00;99271.45;106185;1251;73653;-73
2023/10/19 09:14:12;;;;;;;;;;;;;;;9.85;100.00;99268.24;106137;1251;71059;-73
2023/10/19 09:16:55;;;;;;;;;;;;;;;9.93;100.00;99268.30;106189;1250;72251;-73
2023/10/19 09:19:41;;;;;;;;;;;;;;;9.97;100.00;99262.03;107005;1250;61316;-74
2023/10/19 09:22:16;;;;;;;;;;;;;;;10.01;100.00;99264.66;106059;1251;61313;-73
2023/10/19 09:24:43;;;;;;;;;;;;;;;10.01;100.00;99255.91;106687;1250;73439;-73
2023/10/19 09:27:10;;;;;;;;;;;;;;;9.98;100.00;99257.24;107426;1250;72559;-73
2023/10/19 09:29:37;;;;;;;;;;;;;;;9.98;100.00;99262.70;107049;1252;72753;-74
2023/10/19 09:32:04;;;;;;;;;;;;;;;9.99;100.00;99262.99;106491;1250;61232;-72
2023/10/19 09:34:32;;;;;;;;;;;;;;;10.00;100.00;99254.40;107402;1250;61329;-74
2023/10/19 09:37:03;;;;;;;;;;;;;;;10.05;100.00;99254.21;106645;1254;75343;-73
2023/10/19 09:39:35;;;;;;;;;;;;;;;10.07;100.00;99246.42;106708;1251;70097;-74
2023/10/19 09:42:06;;;;;;;;;;;;;;;10.06;100.00;99251.36;106218;1250;71164;-74
2023/10/19 09:44:34;;;;;;;;;;;;;;;10.07;100.00;99249.77;106356;1250;61272;-74
2023/10/19 09:47:01;;;;;;;;;;;;;;;10.08;100.00;99244.30;106349;1254;61250;-73
2023/10/19 09:49:28;;;;;;;;;;;;;;;10.10;100.00;99247.02;107188;1250;73628;-74
2023/10/19 09:51:55;;;;;;;;;;;;;;;10.11;100.00;99238.05;106004;1256;71352;-74
2023/10/19 09:54:36;;;;;;;;;;;;;;;10.14;100.00;99238.80;106244;1250;73422;-74
2023/10/19 09:57:03;;;;;;;;;;;;;;;10.22;100.00;99235.89;106593;1250;61277;-73
2023/10/19 09:59:35;;;;;;;;;;;;;;;10.31;100.00;99233.99;107068;1251;61369;-74
2023/10/19 10:02:15;;;;;;;;;;;;;;;10.40;100.00;99228.02;106747;1253;75007;-73
2023/10/19 10:05:09;;;;;;;;;;;;;;;10.50;100.00;99226.44;106024;1257;72838;-73
2023/10/19 10:07:37;;;;;;;;;;;;;;;10.58;100.00;99222.10;106222;1251;72921;-73
2023/10/19 10:10:09;;;;;;;;;;;;;;;10.59;100.00;99223.27;107265;1251;60356;-80
2023/10/19 10:12:39;;;;;;;;;;;;;;;10.58;100.00;99226.84;107158;1251;61324;-85
2023/10/19 10:15:09;;;;;;;;;;;;;;;10.60;100.00;99222.70;106467;1252;74568;-74
2023/10/19 10:17:49;;;;;;;;;;;;;;;10.68;100.00;99226.59;106247;1253;71394;-74
2023/10/19 10:20:18;;;;;;;;;;;;;;;10.75;100.00;99223.86;106325;1253;73088;-74
2023/10/19 10:22:45;;;;;;;;;;;;;;;10.82;100.00;99214.82;106057;1257;61334;-72
2023/10/19 10:25:25;;;;;;;;;;;;;;;10.80;100.00;99207.86;106064;1254;61234;-73
2023/10/19 10:27:52;;;;;;;;;;;;;;;10.78;100.00;99204.25;108478;1252;74882;-73
2023/10/19 10:30:19;;;;;;;;;;;;;;;10.83;100.00;99203.05;109384;1252;72944;-72
2023/10/19 10:32:49;;;;;;;;;;;;;;;10.88;100.00;99197.38;109363;1252;72225;-73
2023/10/19 10:35:34;;;;;;;;;;;;;;;11.00;100.00;99191.27;109022;1252;61333;-74
2023/10/19 10:38:01;;;;;;;;;;;;;;;11.08;100.00;99190.77;105951;1253;119064;-74
2023/10/19 10:40:28;;;;;;;;;;;;;;;11.12;100.00;99189.73;106349;1252;75345;-73
2023/10/19 10:43:07;;;;;;;;;;;;;;;11.10;100.00;99186.11;106035;1253;71862;-73
2023/10/19 10:45:33;;;;;;;;;;;;;;;11.17;100.00;99180.23;105887;1254;73443;-73
2023/10/19 10:48:01;;;;;;;;;;;;;;;11.24;100.00;99185.55;105929;1254;61385;-72
2023/10/19 10:50:31;;;;;;;;;;;;;;;11.30;100.00;99176.45;106015;1255;61738;-73
2023/10/19 10:52:57;;;;;;;;;;;;;;;11.39;100.00;99180.12;106113;1256;74887;-73
2023/10/19 10:55:27;;;;;;;;;;;;;;;11.40;100.00;99173.77;106172;1253;71295;-74
2023/10/19 10:57:54;;;;;;;;;;;;;;;11.41;100.00;99168.97;106052;1253;72683;-73
2023/10/19 11:00:27;;;;;;;;;;;;;;;11.44;100.00;99172.92;106060;1254;61363;-73
2023/10/19 11:03:00;;;;;;;;;;;;;;;11.48;100.00;99173.59;106023;1253;61242;-73
2023/10/19 11:05:27;;;;;;;;;;;;;;;11.55;100.00;99168.75;106198;1253;76219;-73
2023/10/19 11:08:07;;;;;;;;;;;;;;;11.60;100.00;99166.96;106048;1253;71278;-73
2023/10/19 11:10:34;;;;;;;;;;;;;;;11.63;100.00;99165.41;106194;1254;72637;-74
2023/10/19 11:13:04;;;;;;;;;;;;;;;11.61;100.00;99156.20;106095;1257;61346;-74
2023/10/19 11:15:31;;;;;;;;;;;;;;;11.66;100.00;99155.77;106142;1253;61362;-75
2023/10/19 11:17:58;;;;;;;;;;;;;;;11.72;100.00;99156.90;106508;1257;72820;-75
2023/10/19 11:20:25;;;;;;;;;;;;;;;11.69;100.00;99153.70;106122;1253;69347;-74
2023/10/19 11:22:52;;;;;;;;;;;;;;;11.66;100.00;99153.14;106054;1256;72962;-75
2023/10/19 11:25:20;;;;;;;;;;;;;;;11.66;100.00;99153.69;105978;1253;61807;-77
2023/10/19 11:27:49;;;;;;;;;;;;;;;11.70;100.00;99152.78;106058;1253;61446;-73
2023/10/19 11:30:26;;;;;;;;;;;;;;;11.73;100.00;99151.59;105978;1256;74509;-72
2023/10/19 11:32:56;;;;;;;;;;;;;;;11.72;100.00;99146.72;106038;1256;70480;-75
2023/10/19 11:35:30;;;;;;;;;;;;;;;11.73;100.00;99142.47;106401;1253;71354;-75
2023/10/19 11:37:59;;;;;;;;;;;;;;;11.79;100.00;99135.35;106096;1256;61379;-87
2023/10/19 11:40:30;;;;;;;;;;;;;;;11.80;100.00;99130.36;106116;1258;61219;-75
2023/10/19 11:42:58;;;;;;;;;;;;;;;11.77;100.00;99129.08;106059;1253;73916;-75
2023/10/19 11:45:25;;;;;;;;;;;;;;;11.79;100.00;99125.30;106015;1254;72921;-74
2023/10/19 11:47:52;;;;;;;;;;;;;;;11.85;100.00;99120.29;106007;1253;72777;-75
2023/10/19 11:50:19;;;;;;;;;;;;;;;11.88;100.00;99121.38;106359;1253;61234;-75
2023/10/19 11:52:46;;;;;;;;;;;;;;;11.91;100.00;99110.39;106010;1252;61291;-74
2023/10/19 11:55:13;;;;;;;;;;;;;;;11.95;100.00;99104.38;106048;1253;73354;-75
2023/10/19 11:57:43;;;;;;;;;;;;;;;12.02;100.00;99101.27;105971;1257;70218;-74
2023/10/19 12:00:21;;;;;;;;;;;;;;;12.13;100.00;99097.92;105993;1256;72444;-73
2023/10/19 12:02:51;;;;;;;;;;;;;;;12.21;100.00;99092.63;106346;1252;61335;-74
2023/10/19 12:05:18;;;;;;;;;;;;;;;12.20;100.00;99095.45;106025;1256;61235;-75
2023/10/19 12:07:45;;;;;;;;;;;;;;;12.19;100.00;99097.11;106017;1253;74328;-75
2023/10/19 12:10:12;;;;;;;;;;;;;;;12.20;100.00;99086.53;106019;1256;68943;-74
2023/10/19 12:12:39;;;;;;;;;;;;;;;12.28;100.00;99082.96;106041;1253;73018;-74
2023/10/19 12:15:26;;;;;;;;;;;;;;;12.35;100.00;99083.18;105317;1253;1003046;-75
2023/10/19 12:17:54;;;;;;;;;;;;;;;12.43;100.00;99084.70;106025;1253;61227;-76
2023/10/19 12:20:22;;;;;;;;;;;;;;;12.51;100.00;99086.25;106350;1252;74049;-75
2023/10/19 12:22:53;;;;;;;;;;;;;;;12.60;100.00;99090.38;106040;1252;69055;-75
2023/10/19 12:25:28;;;;;;;;;;;;;;;12.58;100.00;99086.39;106056;1257;72683;-76
2023/10/19 12:28:04;;;;;;;;;;;;;;;12.61;100.00;99087.34;106033;1252;61270;-76
2023/10/19 12:30:38;;;;;;;;;;;;;;;12.67;100.00;99087.23;106129;1253;61395;-76
2023/10/19 12:33:11;;;;;;;;;;;;;;;12.64;100.00;99089.48;105961;1257;74219;-75
2023/10/19 12:35:45;;;;;;;;;;;;;;;12.48;100.00;99088.16;106003;1253;71823;-75
2023/10/19 12:38:16;;;;;;;;;;;;;;;12.48;100.00;99089.75;106178;1253;74093;-75
2023/10/19 12:40:47;;;;;;;;;;;;;;;12.66;100.00;99082.14;106143;1253;61272;-75
2023/10/19 12:43:14;;;;;;;;;;;;;;;12.90;100.00;99077.59;106426;1252;61129;-75
2023/10/19 12:45:41;;;;;;;;;;;;;;;13.15;100.00;99074.95;106445;1253;74725;-74
2023/10/19 12:48:10;;;;;;;;;;;;;;;13.37;100.00;99072.54;106414;1256;69641;-74
2023/10/19 12:50:37;;;;;;;;;;;;;;;13.68;100.00;99068.62;106122;1256;72739;-75
2023/10/19 12:53:04;;;;;;;;;;;;;;;13.89;100.00;99070.45;106096;1252;61220;-76
2023/10/19 12:55:31;;;;;;;;;;;;;;;13.88;100.00;99069.11;106032;1253;61228;-75
2023/10/19 12:57:59;;;;;;;;;;;;;;;13.90;100.00;99064.39;106107;1253;73364;-74
2023/10/19 13:00:28;;;;;;;;;;;;;;;14.15;100.00;99055.58;105988;1256;71518;-76
2023/10/19 13:03:03;;;;;;;;;;;;;;;14.49;100.00;99051.01;106064;1253;71605;-75
2023/10/19 13:05:40;;;;;;;;;;;;;;;14.74;100.00;99043.94;106107;1253;61382;-75
2023/10/19 13:08:07;;;;;;;;;;;;;;;14.99;100.00;99034.85;106478;1253;61375;-74
2023/10/19 13:10:35;;;;;;;;;;;;;;;15.46;100.00;99023.85;106150;1253;74782;-75
2023/10/19 13:13:03;;;;;;;;;;;;;;;16.14;100.00;99015.65;106032;1258;70139;-78